Accueil
METAR-TAF:

METAR-TAF

Aéroports :

Yeovilton, Angleterre

latitude: 51-00N, longitude: 002-38W, altitude: 23 m

Observation

Le bulletin a été fait il y a 1 heure et 20 minutes, à 06:50 UTC
Vent 10 kt de sud
Température 14°C
Humidité 94%
Pression 1016 hPa
Visibilité: 9000 m
brume

METAR: EGDY 230650Z AUTO 19010KT 9000 BR BKN007/// BKN015/// 14/13 Q1016 RERA

Heure: 09:10 (08:10 UTC)


TAF: absent

Observations et prévisions météorologiques de plus de 4000 aéroports (messages METAR et TAF).

Les stations disponibles sont représentées par des disques jaunes et rouges sur la carte.

Passer la souris dessus pour voir le nom de la station.

Cliquer dessus pour voir les observations et prévisions météorologiques.

Pour changer de carte: cliquez sur les boutons verts avec une croix noire pour zoomer, sur le bouton vert avec un tiret pour effectuer un zoom arrière, ou sur les flèches vertes pour les cartes adjacentes.


METAR-TAF: